sensor_id;sensor_type;location;lat;lon;timestamp;temperature;humidity
41344;DHT22;27089;50.022;7.604;2023-03-21T00:00:28;8.90;99.90
41344;DHT22;27089;50.022;7.604;2023-03-21T00:02:55;8.90;99.90
41344;DHT22;27089;50.022;7.604;2023-03-21T00:05:22;8.90;99.90
41344;DHT22;27089;50.022;7.604;2023-03-21T00:07:49;8.90;99.90
41344;DHT22;27089;50.022;7.604;2023-03-21T00:10:17;8.90;99.90
41344;DHT22;27089;50.022;7.604;2023-03-21T00:12:44;8.90;99.90
41344;DHT22;27089;50.022;7.604;2023-03-21T00:15:15;8.80;99.90
41344;DHT22;27089;50.022;7.604;2023-03-21T00:17:44;8.80;99.90
41344;DHT22;27089;50.022;7.604;2023-03-21T00:20:15;8.80;99.90
41344;DHT22;27089;50.022;7.604;2023-03-21T00:22:42;8.80;99.90
41344;DHT22;27089;50.022;7.604;2023-03-21T00:25:10;8.80;99.90
41344;DHT22;27089;50.022;7.604;2023-03-21T00:27:36;8.70;99.90
41344;DHT22;27089;50.022;7.604;2023-03-21T00:30:04;8.70;99.90
41344;DHT22;27089;50.022;7.604;2023-03-21T00:32:32;8.70;99.90
41344;DHT22;27089;50.022;7.604;2023-03-21T00:35:00;8.70;99.90
41344;DHT22;27089;50.022;7.604;2023-03-21T00:37:27;8.70;99.90
41344;DHT22;27089;50.022;7.604;2023-03-21T00:39:54;8.70;99.90
41344;DHT22;27089;50.022;7.604;2023-03-21T00:42:21;8.70;99.90
41344;DHT22;27089;50.022;7.604;2023-03-21T00:44:48;8.70;99.90
41344;DHT22;27089;50.022;7.604;2023-03-21T00:47:15;8.70;99.90
41344;DHT22;27089;50.022;7.604;2023-03-21T00:49:42;8.60;99.90
41344;DHT22;27089;50.022;7.604;2023-03-21T00:52:10;8.50;99.90
41344;DHT22;27089;50.022;7.604;2023-03-21T00:54:37;8.50;99.90
41344;DHT22;27089;50.022;7.604;2023-03-21T00:57:04;8.50;99.90
41344;DHT22;27089;50.022;7.604;2023-03-21T00:59:31;8.50;99.90
41344;DHT22;27089;50.022;7.604;2023-03-21T01:01:58;8.50;99.90
41344;DHT22;27089;50.022;7.604;2023-03-21T01:04:26;8.50;99.90
41344;DHT22;27089;50.022;7.604;2023-03-21T01:06:53;8.50;99.90
41344;DHT22;27089;50.022;7.604;2023-03-21T01:09:23;8.50;99.90
41344;DHT22;27089;50.022;7.604;2023-03-21T01:11:50;8.50;99.90
41344;DHT22;27089;50.022;7.604;2023-03-21T01:14:19;8.60;99.90
41344;DHT22;27089;50.022;7.604;2023-03-21T01:16:46;8.60;99.90
41344;DHT22;27089;50.022;7.604;2023-03-21T01:19:16;8.60;99.90
41344;DHT22;27089;50.022;7.604;2023-03-21T01:21:44;8.60;99.90
41344;DHT22;27089;50.022;7.604;2023-03-21T01:24:11;8.60;99.90
41344;DHT22;27089;50.022;7.604;2023-03-21T01:26:39;8.60;99.90
41344;DHT22;27089;50.022;7.604;2023-03-21T01:29:06;8.60;99.90
41344;DHT22;27089;50.022;7.604;2023-03-21T01:31:33;8.50;99.90
41344;DHT22;27089;50.022;7.604;2023-03-21T01:34:00;8.50;99.90
41344;DHT22;27089;50.022;7.604;2023-03-21T01:36:27;8.40;99.90
41344;DHT22;27089;50.022;7.604;2023-03-21T01:38:54;8.30;99.90
41344;DHT22;27089;50.022;7.604;2023-03-21T01:41:25;8.30;99.90
41344;DHT22;27089;50.022;7.604;2023-03-21T01:43:54;8.20;99.90
41344;DHT22;27089;50.022;7.604;2023-03-21T01:46:31;8.20;99.90
41344;DHT22;27089;50.022;7.604;2023-03-21T01:49:02;8.10;99.90
41344;DHT22;27089;50.022;7.604;2023-03-21T01:51:34;8.10;99.90
41344;DHT22;27089;50.022;7.604;2023-03-21T01:54:02;8.10;99.90
41344;DHT22;27089;50.022;7.604;2023-03-21T01:56:33;8.10;99.90
41344;DHT22;27089;50.022;7.604;2023-03-21T01:59:07;8.10;99.90
41344;DHT22;27089;50.022;7.604;2023-03-21T02:01:36;8.10;99.90
41344;DHT22;27089;50.022;7.604;2023-03-21T02:04:07;8.10;99.90
41344;DHT22;27089;50.022;7.604;2023-03-21T02:06:41;8.10;99.90
41344;DHT22;27089;50.022;7.604;2023-03-21T02:09:13;8.10;99.90
41344;DHT22;27089;50.022;7.604;2023-03-21T02:11:43;8.10;99.90
41344;DHT22;27089;50.022;7.604;2023-03-21T02:14:15;8.10;99.90
41344;DHT22;27089;50.022;7.604;2023-03-21T02:16:51;8.10;99.90
41344;DHT22;27089;50.022;7.604;2023-03-21T02:19:38;8.00;99.90
41344;DHT22;27089;50.022;7.604;2023-03-21T02:22:35;8.00;99.90
41344;DHT22;27089;50.022;7.604;2023-03-21T02:28:18;8.10;99.90
41344;DHT22;27089;50.022;7.604;2023-03-21T02:31:20;8.10;99.90
41344;DHT22;27089;50.022;7.604;2023-03-21T02:37:01;8.00;99.90
41344;DHT22;27089;50.022;7.604;2023-03-21T02:39:40;8.00;99.90
41344;DHT22;27089;50.022;7.604;2023-03-21T02:42:13;7.90;99.90
41344;DHT22;27089;50.022;7.604;2023-03-21T02:44:45;7.80;99.90
41344;DHT22;27089;50.022;7.604;2023-03-21T02:47:21;7.80;99.90
41344;DHT22;27089;50.022;7.604;2023-03-21T02:49:54;7.70;99.90
41344;DHT22;27089;50.022;7.604;2023-03-21T02:52:25;7.70;99.90
41344;DHT22;27089;50.022;7.604;2023-03-21T02:54:56;7.70;99.90
41344;DHT22;27089;50.022;7.604;2023-03-21T02:57:24;7.80;99.90
41344;DHT22;27089;50.022;7.604;2023-03-21T02:59:52;7.80;99.90
41344;DHT22;27089;50.022;7.604;2023-03-21T03:02:22;7.80;99.90
41344;DHT22;27089;50.022;7.604;2023-03-21T03:04:50;7.80;99.90
41344;DHT22;27089;50.022;7.604;2023-03-21T03:07:32;7.80;99.90
41344;DHT22;27089;50.022;7.604;2023-03-21T03:10:14;7.70;99.90
41344;DHT22;27089;50.022;7.604;2023-03-21T03:12:48;7.50;99.90
41344;DHT22;27089;50.022;7.604;2023-03-21T03:15:24;7.30;99.90
41344;DHT22;27089;50.022;7.604;2023-03-21T03:18:03;7.20;99.90
41344;DHT22;27089;50.022;7.604;2023-03-21T03:20:42;7.10;99.90
41344;DHT22;27089;50.022;7.604;2023-03-21T03:23:18;7.00;99.90
41344;DHT22;27089;50.022;7.604;2023-03-21T03:25:52;7.00;99.90
41344;DHT22;27089;50.022;7.604;2023-03-21T03:28:23;7.00;99.90
41344;DHT22;27089;50.022;7.604;2023-03-21T03:30:52;7.00;99.90
41344;DHT22;27089;50.022;7.604;2023-03-21T03:33:21;7.00;99.90
41344;DHT22;27089;50.022;7.604;2023-03-21T03:35:50;7.10;99.90
41344;DHT22;27089;50.022;7.604;2023-03-21T03:38:21;7.10;99.90
41344;DHT22;27089;50.022;7.604;2023-03-21T03:40:53;7.10;99.90
41344;DHT22;27089;50.022;7.604;2023-03-21T03:43:25;7.10;99.90
41344;DHT22;27089;50.022;7.604;2023-03-21T03:45:59;7.10;99.90
41344;DHT22;27089;50.022;7.604;2023-03-21T03:48:31;7.00;99.90
41344;DHT22;27089;50.022;7.604;2023-03-21T03:51:02;6.90;99.90
41344;DHT22;27089;50.022;7.604;2023-03-21T03:53:36;6.80;99.90
41344;DHT22;27089;50.022;7.604;2023-03-21T03:56:07;6.70;99.90
41344;DHT22;27089;50.022;7.604;2023-03-21T03:58:36;6.60;99.90
41344;DHT22;27089;50.022;7.604;2023-03-21T04:01:05;6.50;99.90
41344;DHT22;27089;50.022;7.604;2023-03-21T04:03:35;6.40;99.90
41344;DHT22;27089;50.022;7.604;2023-03-21T04:06:03;6.40;99.90
41344;DHT22;27089;50.022;7.604;2023-03-21T04:08:31;6.30;99.90
41344;DHT22;27089;50.022;7.604;2023-03-21T04:11:00;6.30;99.90
41344;DHT22;27089;50.022;7.604;2023-03-21T04:13:27;6.20;99.90
41344;DHT22;27089;50.022;7.604;2023-03-21T04:15:54;6.10;99.90
41344;DHT22;27089;50.022;7.604;2023-03-21T04:18:21;6.10;99.90
41344;DHT22;27089;50.022;7.604;2023-03-21T04:20:49;6.10;99.90
41344;DHT22;27089;50.022;7.604;2023-03-21T04:23:17;6.00;99.90
41344;DHT22;27089;50.022;7.604;2023-03-21T04:25:45;6.00;99.90
41344;DHT22;27089;50.022;7.604;2023-03-21T04:28:13;6.00;99.90
41344;DHT22;27089;50.022;7.604;2023-03-21T04:30:40;6.00;99.90
41344;DHT22;27089;50.022;7.604;2023-03-21T04:33:07;6.00;99.90
41344;DHT22;27089;50.022;7.604;2023-03-21T04:35:34;6.10;99.90
41344;DHT22;27089;50.022;7.604;2023-03-21T04:38:02;6.10;99.90
41344;DHT22;27089;50.022;7.604;2023-03-21T04:40:29;6.20;99.90
41344;DHT22;27089;50.022;7.604;2023-03-21T04:42:56;6.30;99.90
41344;DHT22;27089;50.022;7.604;2023-03-21T04:45:27;6.30;99.90
41344;DHT22;27089;50.022;7.604;2023-03-21T04:47:54;6.40;99.90
41344;DHT22;27089;50.022;7.604;2023-03-21T04:50:21;6.50;99.90
41344;DHT22;27089;50.022;7.604;2023-03-21T04:52:48;6.60;99.90
41344;DHT22;27089;50.022;7.604;2023-03-21T04:55:15;6.60;99.90
41344;DHT22;27089;50.022;7.604;2023-03-21T04:57:46;6.60;99.90
41344;DHT22;27089;50.022;7.604;2023-03-21T05:00:14;6.70;99.90
41344;DHT22;27089;50.022;7.604;2023-03-21T05:02:43;6.70;99.90
41344;DHT22;27089;50.022;7.604;2023-03-21T05:05:10;6.70;99.90
41344;DHT22;27089;50.022;7.604;2023-03-21T05:07:39;6.60;99.90
41344;DHT22;27089;50.022;7.604;2023-03-21T05:10:09;6.60;99.90
41344;DHT22;27089;50.022;7.604;2023-03-21T05:12:37;6.60;99.90
41344;DHT22;27089;50.022;7.604;2023-03-21T05:15:05;6.60;99.90
41344;DHT22;27089;50.022;7.604;2023-03-21T05:17:32;6.50;99.90
41344;DHT22;27089;50.022;7.604;2023-03-21T05:20:01;6.50;99.90
41344;DHT22;27089;50.022;7.604;2023-03-21T05:22:30;6.40;99.90
41344;DHT22;27089;50.022;7.604;2023-03-21T05:25:07;6.40;99.90
41344;DHT22;27089;50.022;7.604;2023-03-21T05:27:34;6.40;99.90
41344;DHT22;27089;50.022;7.604;2023-03-21T05:30:05;6.50;99.90
41344;DHT22;27089;50.022;7.604;2023-03-21T05:32:33;6.50;99.90
41344;DHT22;27089;50.022;7.604;2023-03-21T05:35:01;6.60;99.90
41344;DHT22;27089;50.022;7.604;2023-03-21T05:37:29;6.60;99.90
41344;DHT22;27089;50.022;7.604;2023-03-21T05:39:56;6.60;99.90
41344;DHT22;27089;50.022;7.604;2023-03-21T05:42:24;6.70;99.90
41344;DHT22;27089;50.022;7.604;2023-03-21T05:44:51;6.90;99.90
41344;DHT22;27089;50.022;7.604;2023-03-21T05:47:19;7.00;99.90
41344;DHT22;27089;50.022;7.604;2023-03-21T05:49:46;7.10;99.90
41344;DHT22;27089;50.022;7.604;2023-03-21T05:52:14;7.30;99.90
41344;DHT22;27089;50.022;7.604;2023-03-21T05:54:42;7.40;99.90
41344;DHT22;27089;50.022;7.604;2023-03-21T05:57:09;7.50;99.90
41344;DHT22;27089;50.022;7.604;2023-03-21T05:59:36;7.60;99.90
41344;DHT22;27089;50.022;7.604;2023-03-21T06:02:03;7.80;99.90
41344;DHT22;27089;50.022;7.604;2023-03-21T06:04:30;7.90;99.90
41344;DHT22;27089;50.022;7.604;2023-03-21T06:06:57;8.10;99.90
41344;DHT22;27089;50.022;7.604;2023-03-21T06:09:25;8.40;99.90
41344;DHT22;27089;50.022;7.604;2023-03-21T06:11:54;8.50;99.90
41344;DHT22;27089;50.022;7.604;2023-03-21T06:14:22;8.50;99.90
41344;DHT22;27089;50.022;7.604;2023-03-21T06:16:49;8.30;99.90
41344;DHT22;27089;50.022;7.604;2023-03-21T06:19:18;8.30;99.90
41344;DHT22;27089;50.022;7.604;2023-03-21T06:21:46;8.30;99.90
41344;DHT22;27089;50.022;7.604;2023-03-21T06:24:13;8.40;99.90
41344;DHT22;27089;50.022;7.604;2023-03-21T06:26:42;8.40;99.90
41344;DHT22;27089;50.022;7.604;2023-03-21T06:29:09;8.40;99.90
41344;DHT22;27089;50.022;7.604;2023-03-21T06:31:36;8.40;99.90
41344;DHT22;27089;50.022;7.604;2023-03-21T06:34:03;8.50;99.90
41344;DHT22;27089;50.022;7.604;2023-03-21T06:36:30;8.50;99.90
41344;DHT22;27089;50.022;7.604;2023-03-21T06:38:57;8.60;99.90
41344;DHT22;27089;50.022;7.604;2023-03-21T06:41:24;8.60;99.90
41344;DHT22;27089;50.022;7.604;2023-03-21T06:43:52;8.70;99.90
41344;DHT22;27089;50.022;7.604;2023-03-21T06:46:19;8.80;99.90
41344;DHT22;27089;50.022;7.604;2023-03-21T06:48:46;8.90;99.90
41344;DHT22;27089;50.022;7.604;2023-03-21T06:51:14;8.90;99.90
41344;DHT22;27089;50.022;7.604;2023-03-21T06:53:42;9.00;99.90
41344;DHT22;27089;50.022;7.604;2023-03-21T06:56:09;9.00;99.90
41344;DHT22;27089;50.022;7.604;2023-03-21T06:58:36;9.10;99.90
41344;DHT22;27089;50.022;7.604;2023-03-21T07:01:06;9.30;99.90
41344;DHT22;27089;50.022;7.604;2023-03-21T07:03:33;9.40;99.90
41344;DHT22;27089;50.022;7.604;2023-03-21T07:06:03;9.50;99.90
41344;DHT22;27089;50.022;7.604;2023-03-21T07:08:31;9.70;99.90
41344;DHT22;27089;50.022;7.604;2023-03-21T07:10:58;9.80;99.90
41344;DHT22;27089;50.022;7.604;2023-03-21T07:13:25;9.80;99.90
41344;DHT22;27089;50.022;7.604;2023-03-21T07:15:52;9.90;99.90
41344;DHT22;27089;50.022;7.604;2023-03-21T07:18:21;9.90;99.90
41344;DHT22;27089;50.022;7.604;2023-03-21T07:20:49;9.90;99.90
41344;DHT22;27089;50.022;7.604;2023-03-21T07:23:17;9.80;99.90
41344;DHT22;27089;50.022;7.604;2023-03-21T07:25:45;10.00;99.90
41344;DHT22;27089;50.022;7.604;2023-03-21T07:28:12;10.00;99.90
41344;DHT22;27089;50.022;7.604;2023-03-21T07:30:40;10.00;99.90
41344;DHT22;27089;50.022;7.604;2023-03-21T07:33:06;10.00;99.90
41344;DHT22;27089;50.022;7.604;2023-03-21T07:35:35;10.00;99.90
41344;DHT22;27089;50.022;7.604;2023-03-21T07:38:02;10.00;99.90
41344;DHT22;27089;50.022;7.604;2023-03-21T07:40:30;10.10;99.90
41344;DHT22;27089;50.022;7.604;2023-03-21T07:42:57;10.10;99.90
41344;DHT22;27089;50.022;7.604;2023-03-21T07:45:24;10.20;99.90
41344;DHT22;27089;50.022;7.604;2023-03-21T07:47:52;10.20;99.90
41344;DHT22;27089;50.022;7.604;2023-03-21T07:50:19;10.30;99.90
41344;DHT22;27089;50.022;7.604;2023-03-21T07:52:48;10.30;99.90
41344;DHT22;27089;50.022;7.604;2023-03-21T07:55:15;10.50;99.90
41344;DHT22;27089;50.022;7.604;2023-03-21T07:57:43;10.60;99.90
41344;DHT22;27089;50.022;7.604;2023-03-21T08:00:12;10.70;99.90
41344;DHT22;27089;50.022;7.604;2023-03-21T08:02:47;10.80;99.90
41344;DHT22;27089;50.022;7.604;2023-03-21T08:05:15;10.90;99.90
41344;DHT22;27089;50.022;7.604;2023-03-21T08:07:44;11.00;99.90
41344;DHT22;27089;50.022;7.604;2023-03-21T08:10:12;11.00;99.90
41344;DHT22;27089;50.022;7.604;2023-03-21T08:12:39;11.00;99.90
41344;DHT22;27089;50.022;7.604;2023-03-21T08:15:07;11.00;99.90
41344;DHT22;27089;50.022;7.604;2023-03-21T08:17:34;11.00;99.90
41344;DHT22;27089;50.022;7.604;2023-03-21T08:20:03;11.00;99.90
41344;DHT22;27089;50.022;7.604;2023-03-21T08:22:33;10.90;99.90
41344;DHT22;27089;50.022;7.604;2023-03-21T08:25:01;10.90;99.90
41344;DHT22;27089;50.022;7.604;2023-03-21T08:27:31;10.90;99.90
41344;DHT22;27089;50.022;7.604;2023-03-21T08:29:58;10.90;99.90
41344;DHT22;27089;50.022;7.604;2023-03-21T08:32:26;10.90;99.90
41344;DHT22;27089;50.022;7.604;2023-03-21T08:34:57;10.90;99.90
41344;DHT22;27089;50.022;7.604;2023-03-21T08:37:25;10.90;99.90
41344;DHT22;27089;50.022;7.604;2023-03-21T08:39:53;11.00;99.90
41344;DHT22;27089;50.022;7.604;2023-03-21T08:42:20;11.00;99.90
41344;DHT22;27089;50.022;7.604;2023-03-21T08:44:49;11.10;99.90
41344;DHT22;27089;50.022;7.604;2023-03-21T08:47:16;11.00;99.90
41344;DHT22;27089;50.022;7.604;2023-03-21T08:49:43;11.00;99.90
41344;DHT22;27089;50.022;7.604;2023-03-21T08:52:11;11.10;99.90
41344;DHT22;27089;50.022;7.604;2023-03-21T08:54:38;11.00;99.90
41344;DHT22;27089;50.022;7.604;2023-03-21T08:57:06;11.00;99.90
41344;DHT22;27089;50.022;7.604;2023-03-21T08:59:35;11.10;99.90
41344;DHT22;27089;50.022;7.604;2023-03-21T09:02:04;11.10;99.90
41344;DHT22;27089;50.022;7.604;2023-03-21T09:04:32;11.20;99.90
41344;DHT22;27089;50.022;7.604;2023-03-21T09:06:59;11.20;99.90
41344;DHT22;27089;50.022;7.604;2023-03-21T09:09:29;11.30;99.90
41344;DHT22;27089;50.022;7.604;2023-03-21T09:11:56;11.30;99.90
41344;DHT22;27089;50.022;7.604;2023-03-21T09:14:23;11.30;99.90
41344;DHT22;27089;50.022;7.604;2023-03-21T09:16:50;11.20;99.90
41344;DHT22;27089;50.022;7.604;2023-03-21T09:19:18;11.20;99.90
41344;DHT22;27089;50.022;7.604;2023-03-21T09:21:46;11.20;99.90
41344;DHT22;27089;50.022;7.604;2023-03-21T09:24:13;11.30;99.90
41344;DHT22;27089;50.022;7.604;2023-03-21T09:26:42;11.20;99.90
41344;DHT22;27089;50.022;7.604;2023-03-21T09:29:10;11.30;99.90
41344;DHT22;27089;50.022;7.604;2023-03-21T09:31:37;11.20;99.90
41344;DHT22;27089;50.022;7.604;2023-03-21T09:34:04;11.20;99.90
41344;DHT22;27089;50.022;7.604;2023-03-21T09:36:34;11.30;99.90
41344;DHT22;27089;50.022;7.604;2023-03-21T09:39:02;11.30;99.90
41344;DHT22;27089;50.022;7.604;2023-03-21T09:41:38;11.30;99.90
41344;DHT22;27089;50.022;7.604;2023-03-21T09:44:16;11.20;99.90
41344;DHT22;27089;50.022;7.604;2023-03-21T09:46:50;11.10;99.90
41344;DHT22;27089;50.022;7.604;2023-03-21T09:49:22;11.10;99.90
41344;DHT22;27089;50.022;7.604;2023-03-21T09:51:58;11.00;99.90
41344;DHT22;27089;50.022;7.604;2023-03-21T09:54:34;11.10;99.90
41344;DHT22;27089;50.022;7.604;2023-03-21T09:57:08;11.10;99.90
41344;DHT22;27089;50.022;7.604;2023-03-21T09:59:39;11.20;99.90
41344;DHT22;27089;50.022;7.604;2023-03-21T10:02:25;11.20;99.90
41344;DHT22;27089;50.022;7.604;2023-03-21T10:04:57;11.30;99.90
41344;DHT22;27089;50.022;7.604;2023-03-21T10:07:26;11.40;99.90
41344;DHT22;27089;50.022;7.604;2023-03-21T10:09:56;11.60;99.90
41344;DHT22;27089;50.022;7.604;2023-03-21T10:12:24;11.70;99.90
41344;DHT22;27089;50.022;7.604;2023-03-21T10:14:57;11.70;99.90
41344;DHT22;27089;50.022;7.604;2023-03-21T10:17:28;11.70;99.90
41344;DHT22;27089;50.022;7.604;2023-03-21T10:20:07;11.70;99.90
41344;DHT22;27089;50.022;7.604;2023-03-21T10:22:38;11.80;99.90
41344;DHT22;27089;50.022;7.604;2023-03-21T10:25:06;11.90;99.90
41344;DHT22;27089;50.022;7.604;2023-03-21T10:27:34;12.00;99.90
41344;DHT22;27089;50.022;7.604;2023-03-21T10:30:03;12.10;99.90
41344;DHT22;27089;50.022;7.604;2023-03-21T10:32:33;12.20;99.90
41344;DHT22;27089;50.022;7.604;2023-03-21T10:35:00;12.20;99.90
41344;DHT22;27089;50.022;7.604;2023-03-21T10:37:29;12.40;99.90
41344;DHT22;27089;50.022;7.604;2023-03-21T10:39:58;12.40;99.90
41344;DHT22;27089;50.022;7.604;2023-03-21T10:42:27;12.50;99.90
41344;DHT22;27089;50.022;7.604;2023-03-21T10:44:56;12.50;99.90
41344;DHT22;27089;50.022;7.604;2023-03-21T10:47:25;12.60;99.90
41344;DHT22;27089;50.022;7.604;2023-03-21T10:49:53;12.50;99.90
41344;DHT22;27089;50.022;7.604;2023-03-21T10:52:21;12.60;99.90
41344;DHT22;27089;50.022;7.604;2023-03-21T10:54:49;12.60;99.90
41344;DHT22;27089;50.022;7.604;2023-03-21T10:57:31;12.50;99.90
41344;DHT22;27089;50.022;7.604;2023-03-21T11:00:00;12.60;99.90
41344;DHT22;27089;50.022;7.604;2023-03-21T11:02:34;12.60;99.90
41344;DHT22;27089;50.022;7.604;2023-03-21T11:05:04;12.70;99.90
41344;DHT22;27089;50.022;7.604;2023-03-21T11:07:32;12.60;99.90
41344;DHT22;27089;50.022;7.604;2023-03-21T11:10:11;12.70;99.90
41344;DHT22;27089;50.022;7.604;2023-03-21T11:12:41;12.70;99.90
41344;DHT22;27089;50.022;7.604;2023-03-21T11:15:27;12.80;99.90
41344;DHT22;27089;50.022;7.604;2023-03-21T11:17:55;12.80;99.90
41344;DHT22;27089;50.022;7.604;2023-03-21T11:20:22;12.80;99.90
41344;DHT22;27089;50.022;7.604;2023-03-21T11:22:53;12.80;99.90
41344;DHT22;27089;50.022;7.604;2023-03-21T11:25:24;12.80;99.90
41344;DHT22;27089;50.022;7.604;2023-03-21T11:27:54;12.90;99.90
41344;DHT22;27089;50.022;7.604;2023-03-21T11:30:23;12.90;99.90
41344;DHT22;27089;50.022;7.604;2023-03-21T11:32:53;13.00;99.90
41344;DHT22;27089;50.022;7.604;2023-03-21T11:35:23;12.90;99.90
41344;DHT22;27089;50.022;7.604;2023-03-21T11:37:52;12.90;99.90
41344;DHT22;27089;50.022;7.604;2023-03-21T11:40:23;12.80;99.90
41344;DHT22;27089;50.022;7.604;2023-03-21T11:42:52;12.80;99.90
41344;DHT22;27089;50.022;7.604;2023-03-21T11:45:23;12.70;99.90
41344;DHT22;27089;50.022;7.604;2023-03-21T11:47:52;12.60;99.90
41344;DHT22;27089;50.022;7.604;2023-03-21T11:50:25;12.60;99.90
41344;DHT22;27089;50.022;7.604;2023-03-21T11:53:13;12.50;99.90
41344;DHT22;27089;50.022;7.604;2023-03-21T11:55:53;12.50;99.90
41344;DHT22;27089;50.022;7.604;2023-03-21T11:58:36;12.60;99.90
41344;DHT22;27089;50.022;7.604;2023-03-21T12:01:12;12.50;99.90
41344;DHT22;27089;50.022;7.604;2023-03-21T12:06:35;12.60;99.90
41344;DHT22;27089;50.022;7.604;2023-03-21T12:09:20;12.60;99.90
41344;DHT22;27089;50.022;7.604;2023-03-21T12:12:03;12.60;99.90
41344;DHT22;27089;50.022;7.604;2023-03-21T12:14:38;12.60;99.90
41344;DHT22;27089;50.022;7.604;2023-03-21T12:17:16;12.50;99.90
41344;DHT22;27089;50.022;7.604;2023-03-21T12:20:11;12.50;99.90
41344;DHT22;27089;50.022;7.604;2023-03-21T12:22:48;12.30;99.90
41344;DHT22;27089;50.022;7.604;2023-03-21T12:25:21;12.10;99.90
41344;DHT22;27089;50.022;7.604;2023-03-21T12:27:55;12.10;99.90
41344;DHT22;27089;50.022;7.604;2023-03-21T12:30:32;12.00;99.90
41344;DHT22;27089;50.022;7.604;2023-03-21T12:33:18;11.90;99.90
41344;DHT22;27089;50.022;7.604;2023-03-21T12:36:02;11.80;99.90
41344;DHT22;27089;50.022;7.604;2023-03-21T12:38:37;11.70;99.90
41344;DHT22;27089;50.022;7.604;2023-03-21T12:41:15;11.70;99.90
41344;DHT22;27089;50.022;7.604;2023-03-21T12:43:46;11.60;99.90
41344;DHT22;27089;50.022;7.604;2023-03-21T12:46:19;11.50;99.90
41344;DHT22;27089;50.022;7.604;2023-03-21T12:48:52;11.50;99.90
41344;DHT22;27089;50.022;7.604;2023-03-21T12:51:25;11.40;99.90
41344;DHT22;27089;50.022;7.604;2023-03-21T12:53:58;11.50;99.90
41344;DHT22;27089;50.022;7.604;2023-03-21T12:56:29;11.60;99.90
41344;DHT22;27089;50.022;7.604;2023-03-21T12:59:01;11.70;99.90
41344;DHT22;27089;50.022;7.604;2023-03-21T13:01:29;11.80;99.90
41344;DHT22;27089;50.022;7.604;2023-03-21T13:04:15;11.80;99.90
41344;DHT22;27089;50.022;7.604;2023-03-21T13:06:47;11.80;99.90
41344;DHT22;27089;50.022;7.604;2023-03-21T13:09:20;11.80;99.90
41344;DHT22;27089;50.022;7.604;2023-03-21T13:11:53;11.70;99.90
41344;DHT22;27089;50.022;7.604;2023-03-21T13:14:25;11.80;99.90
41344;DHT22;27089;50.022;7.604;2023-03-21T13:16:55;11.80;99.90
41344;DHT22;27089;50.022;7.604;2023-03-21T13:19:29;11.80;99.90
41344;DHT22;27089;50.022;7.604;2023-03-21T13:22:06;11.70;99.90
41344;DHT22;27089;50.022;7.604;2023-03-21T13:24:39;11.80;99.90
41344;DHT22;27089;50.022;7.604;2023-03-21T13:27:17;11.80;99.90
41344;DHT22;27089;50.022;7.604;2023-03-21T13:29:50;11.80;99.90
41344;DHT22;27089;50.022;7.604;2023-03-21T13:32:24;11.90;99.90
41344;DHT22;27089;50.022;7.604;2023-03-21T13:34:57;12.00;99.90
41344;DHT22;27089;50.022;7.604;2023-03-21T13:37:28;12.20;99.90
41344;DHT22;27089;50.022;7.604;2023-03-21T13:40:00;12.20;99.90
41344;DHT22;27089;50.022;7.604;2023-03-21T13:42:34;12.10;99.90
41344;DHT22;27089;50.022;7.604;2023-03-21T13:45:05;12.00;99.90
41344;DHT22;27089;50.022;7.604;2023-03-21T13:47:39;11.90;99.90
41344;DHT22;27089;50.022;7.604;2023-03-21T13:50:29;11.90;99.90
41344;DHT22;27089;50.022;7.604;2023-03-21T13:53:30;11.90;99.90
41344;DHT22;27089;50.022;7.604;2023-03-21T13:56:00;12.00;99.90
41344;DHT22;27089;50.022;7.604;2023-03-21T13:58:32;12.10;99.90
41344;DHT22;27089;50.022;7.604;2023-03-21T14:01:31;12.30;99.90
41344;DHT22;27089;50.022;7.604;2023-03-21T14:04:04;12.50;99.90
41344;DHT22;27089;50.022;7.604;2023-03-21T14:06:39;12.70;99.90
41344;DHT22;27089;50.022;7.604;2023-03-21T14:09:08;12.80;99.90
41344;DHT22;27089;50.022;7.604;2023-03-21T14:11:38;12.80;99.90
41344;DHT22;27089;50.022;7.604;2023-03-21T14:14:05;12.90;99.90
41344;DHT22;27089;50.022;7.604;2023-03-21T14:16:32;12.90;99.90
41344;DHT22;27089;50.022;7.604;2023-03-21T14:19:01;12.80;99.90
41344;DHT22;27089;50.022;7.604;2023-03-21T14:21:30;12.60;99.90
41344;DHT22;27089;50.022;7.604;2023-03-21T14:24:01;12.50;99.90
41344;DHT22;27089;50.022;7.604;2023-03-21T14:26:30;12.40;99.90
41344;DHT22;27089;50.022;7.604;2023-03-21T14:28:58;12.30;99.90
41344;DHT22;27089;50.022;7.604;2023-03-21T14:31:27;12.30;99.90
41344;DHT22;27089;50.022;7.604;2023-03-21T14:33:56;12.30;99.90
41344;DHT22;27089;50.022;7.604;2023-03-21T14:36:26;12.30;99.90
41344;DHT22;27089;50.022;7.604;2023-03-21T14:38:57;12.20;99.90
41344;DHT22;27089;50.022;7.604;2023-03-21T14:41:27;12.30;99.90
41344;DHT22;27089;50.022;7.604;2023-03-21T14:44:01;12.30;99.90
41344;DHT22;27089;50.022;7.604;2023-03-21T14:46:28;12.30;99.90
41344;DHT22;27089;50.022;7.604;2023-03-21T14:49:09;12.30;99.90
41344;DHT22;27089;50.022;7.604;2023-03-21T14:51:36;12.30;99.90
41344;DHT22;27089;50.022;7.604;2023-03-21T14:54:07;12.30;99.90
41344;DHT22;27089;50.022;7.604;2023-03-21T14:56:37;12.20;99.90
41344;DHT22;27089;50.022;7.604;2023-03-21T14:59:05;12.20;99.90
41344;DHT22;27089;50.022;7.604;2023-03-21T15:01:33;12.20;99.90
41344;DHT22;27089;50.022;7.604;2023-03-21T15:04:04;12.20;99.90
41344;DHT22;27089;50.022;7.604;2023-03-21T15:06:32;12.20;99.90
41344;DHT22;27089;50.022;7.604;2023-03-21T15:09:02;12.10;99.90
41344;DHT22;27089;50.022;7.604;2023-03-21T15:11:31;12.20;99.90
41344;DHT22;27089;50.022;7.604;2023-03-21T15:14:01;12.10;99.90
41344;DHT22;27089;50.022;7.604;2023-03-21T15:16:29;12.00;99.90
41344;DHT22;27089;50.022;7.604;2023-03-21T15:18:57;12.00;99.90
41344;DHT22;27089;50.022;7.604;2023-03-21T15:21:27;11.90;99.90
41344;DHT22;27089;50.022;7.604;2023-03-21T15:23:57;11.90;99.90
41344;DHT22;27089;50.022;7.604;2023-03-21T15:26:25;12.00;99.90
41344;DHT22;27089;50.022;7.604;2023-03-21T15:28:55;12.00;99.90
41344;DHT22;27089;50.022;7.604;2023-03-21T15:31:28;12.10;99.90
41344;DHT22;27089;50.022;7.604;2023-03-21T15:33:56;12.10;99.90
41344;DHT22;27089;50.022;7.604;2023-03-21T15:36:26;12.10;99.90
41344;DHT22;27089;50.022;7.604;2023-03-21T15:38:54;12.20;99.90
41344;DHT22;27089;50.022;7.604;2023-03-21T15:41:28;12.20;99.90
41344;DHT22;27089;50.022;7.604;2023-03-21T15:44:10;12.20;99.90
41344;DHT22;27089;50.022;7.604;2023-03-21T15:46:42;12.20;99.90
41344;DHT22;27089;50.022;7.604;2023-03-21T15:49:18;12.20;99.90
41344;DHT22;27089;50.022;7.604;2023-03-21T15:51:47;12.10;99.90
41344;DHT22;27089;50.022;7.604;2023-03-21T15:54:20;12.10;99.90
41344;DHT22;27089;50.022;7.604;2023-03-21T15:56:52;12.10;99.90
41344;DHT22;27089;50.022;7.604;2023-03-21T15:59:23;12.10;99.90
41344;DHT22;27089;50.022;7.604;2023-03-21T16:01:52;12.10;99.90
41344;DHT22;27089;50.022;7.604;2023-03-21T16:04:19;12.10;99.90
41344;DHT22;27089;50.022;7.604;2023-03-21T16:06:52;12.00;99.90